Terminal Aerodrome Forecast
Issued by NWS Austin/San Antonio, TX

Home | Current Version | Previous Version | Text Only | Print | Product List | Glossary On
Versions: 1 2 3 4 5 6 7 8 9 10 11 12 13 14 15 16 17 18
000
FTUS44 KEWX 231100
TAFDRT
TAF
KDRT 231128Z 2312/2412 09007KT P6SM SCT060 BKN250
     FM231500 14009KT P6SM BKN250
     FM240200 10007KT P6SM BKN250=

USA.gov is the U.S. government's official web portal to all federal, state and local government web resources and services.